Portada
METAR-TAF:

METAR-TAF

Aeroports :

Independence, Kansas, Estats Units d'Amèrica

latitud: 37-09-30N, longitud: 095-46-42W, altitud: 251 m

Observació

L'informe es va fer fa 34 minuts, a les 11:35 UTC
Vent 7 kt del Sud
Temperatura 24°C
Humitat 89%
Pressió 1015 hPa
Visibilitat: 16.1 km
Cel clar

METAR: KIDP 151135Z AUTO 17007KT 10SM CLR 24/22 A2997 RMK AO2

Hora: 07:09 (12:09 UTC)


TAF: manca

Observacions i pronòstics meteorològics de més de 4000 aeroports (METAR i TAF).

Les estacions disponibles són els punts grocs i vermells al mapa.

Posi el ratolí al punt desitjat per veure el nom de l'estació.

Feu clic per veure les observacions i els pronòstics meteorològics.

Per canviar el mapa: feu clic els botons verds amb una creu de color negre per apropar; al botó verd amb un guió per allunyar la imatge; o en les fletxes verdes per a mapes adjacents.


METAR-TAF: